Terminal Aerodrome Forecast
Issued by NWS Paducah, KY

Home | Current Version | Previous Version | Text Only | Print | Product List | Glossary On
Versions: 1 2 3 4 5 6 7 8 9 10 11 12 13 14 15 16 17 18 19 20 21 22 23 24
260
FTUS43 KPAH 141120
TAFPAH
TAF
KPAH 141120Z 1412/1512 13001KT 6SM -SHRA BR OVC045
     FM141500 17004KT P6SM VCSH FEW013 OVC040
     FM142000 19003KT P6SM BKN020
     FM150130 20001KT 5SM BR SCT250
      TEMPO 1509/1512 2SM BR BKN008=

USA.gov is the U.S. government's official web portal to all federal, state and local government web resources and services.